sensor_id;sensor_type;location;lat;lon;timestamp;P1;durP1;ratioP1;P2;durP2;ratioP2
21848;SDS011;11089;49.852;19.700;2023-10-31T00:02:56;7.72;;;1.80;;
21848;SDS011;11089;49.852;19.700;2023-10-31T00:05:57;6.47;;;1.40;;
21848;SDS011;11089;49.852;19.700;2023-10-31T00:08:58;1.90;;;1.10;;
21848;SDS011;11089;49.852;19.700;2023-10-31T00:11:59;1.85;;;1.20;;
21848;SDS011;11089;49.852;19.700;2023-10-31T00:15:00;1.52;;;1.00;;
21848;SDS011;11089;49.852;19.700;2023-10-31T00:18:00;4.85;;;1.17;;
21848;SDS011;11089;49.852;19.700;2023-10-31T00:21:01;1.23;;;1.02;;
21848;SDS011;11089;49.852;19.700;2023-10-31T00:24:03;1.98;;;1.20;;
21848;SDS011;11089;49.852;19.700;2023-10-31T00:27:04;2.05;;;1.10;;
21848;SDS011;11089;49.852;19.700;2023-10-31T00:30:05;2.50;;;1.10;;
21848;SDS011;11089;49.852;19.700;2023-10-31T00:33:06;4.40;;;1.10;;
21848;SDS011;11089;49.852;19.700;2023-10-31T00:36:07;1.80;;;1.00;;
21848;SDS011;11089;49.852;19.700;2023-10-31T00:39:08;1.75;;;1.00;;
21848;SDS011;11089;49.852;19.700;2023-10-31T00:42:09;2.78;;;1.20;;
21848;SDS011;11089;49.852;19.700;2023-10-31T00:45:10;3.42;;;1.85;;
21848;SDS011;11089;49.852;19.700;2023-10-31T00:48:11;3.72;;;1.10;;
21848;SDS011;11089;49.852;19.700;2023-10-31T00:51:12;2.35;;;1.05;;
21848;SDS011;11089;49.852;19.700;2023-10-31T00:54:13;2.88;;;1.20;;
21848;SDS011;11089;49.852;19.700;2023-10-31T00:57:14;1.50;;;1.10;;
21848;SDS011;11089;49.852;19.700;2023-10-31T01:00:15;4.22;;;1.27;;
21848;SDS011;11089;49.852;19.700;2023-10-31T01:03:16;1.10;;;0.90;;
21848;SDS011;11089;49.852;19.700;2023-10-31T01:06:17;2.55;;;1.13;;
21848;SDS011;11089;49.852;19.700;2023-10-31T01:09:18;7.13;;;1.38;;
21848;SDS011;11089;49.852;19.700;2023-10-31T01:12:19;4.72;;;1.20;;
21848;SDS011;11089;49.852;19.700;2023-10-31T01:15:20;6.75;;;1.50;;
21848;SDS011;11089;49.852;19.700;2023-10-31T01:18:21;2.05;;;1.17;;
21848;SDS011;11089;49.852;19.700;2023-10-31T01:21:22;1.90;;;1.13;;
21848;SDS011;11089;49.852;19.700;2023-10-31T01:24:23;2.95;;;1.67;;
21848;SDS011;11089;49.852;19.700;2023-10-31T01:27:24;4.68;;;1.75;;
21848;SDS011;11089;49.852;19.700;2023-10-31T01:30:25;1.80;;;1.00;;
21848;SDS011;11089;49.852;19.700;2023-10-31T01:33:26;3.63;;;1.65;;
21848;SDS011;11089;49.852;19.700;2023-10-31T01:36:27;2.28;;;1.15;;
21848;SDS011;11089;49.852;19.700;2023-10-31T01:39:28;2.20;;;1.50;;
21848;SDS011;11089;49.852;19.700;2023-10-31T01:42:29;2.95;;;1.40;;
21848;SDS011;11089;49.852;19.700;2023-10-31T01:45:30;2.53;;;1.40;;
21848;SDS011;11089;49.852;19.700;2023-10-31T01:48:32;3.47;;;1.10;;
21848;SDS011;11089;49.852;19.700;2023-10-31T01:51:34;2.90;;;1.30;;
21848;SDS011;11089;49.852;19.700;2023-10-31T01:54:35;5.35;;;1.30;;
21848;SDS011;11089;49.852;19.700;2023-10-31T01:57:37;4.28;;;1.38;;
21848;SDS011;11089;49.852;19.700;2023-10-31T02:00:40;4.15;;;1.50;;
21848;SDS011;11089;49.852;19.700;2023-10-31T02:03:43;2.75;;;1.30;;
21848;SDS011;11089;49.852;19.700;2023-10-31T02:06:44;3.35;;;1.60;;
21848;SDS011;11089;49.852;19.700;2023-10-31T02:09:45;4.18;;;1.38;;
21848;SDS011;11089;49.852;19.700;2023-10-31T02:12:46;3.65;;;1.30;;
21848;SDS011;11089;49.852;19.700;2023-10-31T02:15:47;2.80;;;1.33;;
21848;SDS011;11089;49.852;19.700;2023-10-31T02:18:48;3.97;;;1.20;;
21848;SDS011;11089;49.852;19.700;2023-10-31T02:21:49;3.33;;;1.00;;
21848;SDS011;11089;49.852;19.700;2023-10-31T02:24:50;2.45;;;1.15;;
21848;SDS011;11089;49.852;19.700;2023-10-31T02:27:51;2.25;;;1.30;;
21848;SDS011;11089;49.852;19.700;2023-10-31T02:30:51;3.55;;;1.23;;
21848;SDS011;11089;49.852;19.700;2023-10-31T02:33:52;1.17;;;1.08;;
21848;SDS011;11089;49.852;19.700;2023-10-31T02:36:53;1.52;;;1.20;;
21848;SDS011;11089;49.852;19.700;2023-10-31T02:39:54;1.98;;;1.33;;
21848;SDS011;11089;49.852;19.700;2023-10-31T02:42:55;5.18;;;1.30;;
21848;SDS011;11089;49.852;19.700;2023-10-31T02:45:56;3.05;;;1.45;;
21848;SDS011;11089;49.852;19.700;2023-10-31T02:48:56;9.52;;;1.52;;
21848;SDS011;11089;49.852;19.700;2023-10-31T02:51:57;3.65;;;1.42;;
21848;SDS011;11089;49.852;19.700;2023-10-31T02:54:58;2.30;;;1.40;;
21848;SDS011;11089;49.852;19.700;2023-10-31T02:57:59;3.28;;;1.92;;
21848;SDS011;11089;49.852;19.700;2023-10-31T03:01:00;4.82;;;1.70;;
21848;SDS011;11089;49.852;19.700;2023-10-31T03:04:01;2.00;;;1.30;;
21848;SDS011;11089;49.852;19.700;2023-10-31T03:07:02;2.67;;;1.50;;
21848;SDS011;11089;49.852;19.700;2023-10-31T03:10:03;2.03;;;1.13;;
21848;SDS011;11089;49.852;19.700;2023-10-31T03:13:05;2.60;;;1.30;;
21848;SDS011;11089;49.852;19.700;2023-10-31T03:16:06;3.67;;;1.63;;
21848;SDS011;11089;49.852;19.700;2023-10-31T03:19:07;1.77;;;1.27;;
21848;SDS011;11089;49.852;19.700;2023-10-31T03:22:08;3.38;;;1.40;;
21848;SDS011;11089;49.852;19.700;2023-10-31T03:25:09;4.03;;;1.52;;
21848;SDS011;11089;49.852;19.700;2023-10-31T03:28:17;4.38;;;1.45;;
21848;SDS011;11089;49.852;19.700;2023-10-31T03:31:19;3.67;;;1.60;;
21848;SDS011;11089;49.852;19.700;2023-10-31T03:34:20;7.90;;;1.63;;
21848;SDS011;11089;49.852;19.700;2023-10-31T03:37:21;2.63;;;2.08;;
21848;SDS011;11089;49.852;19.700;2023-10-31T03:40:21;4.05;;;1.55;;
21848;SDS011;11089;49.852;19.700;2023-10-31T03:43:22;4.10;;;1.33;;
21848;SDS011;11089;49.852;19.700;2023-10-31T03:46:23;5.30;;;1.55;;
21848;SDS011;11089;49.852;19.700;2023-10-31T03:49:24;4.88;;;1.70;;
21848;SDS011;11089;49.852;19.700;2023-10-31T03:52:25;4.50;;;1.50;;
21848;SDS011;11089;49.852;19.700;2023-10-31T03:55:25;2.72;;;1.50;;
21848;SDS011;11089;49.852;19.700;2023-10-31T03:58:26;4.03;;;2.10;;
21848;SDS011;11089;49.852;19.700;2023-10-31T04:01:27;6.38;;;2.55;;
21848;SDS011;11089;49.852;19.700;2023-10-31T04:04:28;4.10;;;1.98;;
21848;SDS011;11089;49.852;19.700;2023-10-31T04:07:29;1.90;;;1.30;;
21848;SDS011;11089;49.852;19.700;2023-10-31T04:10:29;6.13;;;1.80;;
21848;SDS011;11089;49.852;19.700;2023-10-31T04:13:30;2.65;;;1.80;;
21848;SDS011;11089;49.852;19.700;2023-10-31T04:16:31;4.82;;;1.60;;
21848;SDS011;11089;49.852;19.700;2023-10-31T04:19:32;3.85;;;1.33;;
21848;SDS011;11089;49.852;19.700;2023-10-31T04:22:33;3.85;;;1.40;;
21848;SDS011;11089;49.852;19.700;2023-10-31T04:25:34;3.63;;;1.75;;
21848;SDS011;11089;49.852;19.700;2023-10-31T04:28:34;5.93;;;1.45;;
21848;SDS011;11089;49.852;19.700;2023-10-31T04:31:35;4.72;;;1.70;;
21848;SDS011;11089;49.852;19.700;2023-10-31T04:34:36;4.07;;;1.63;;
21848;SDS011;11089;49.852;19.700;2023-10-31T04:37:38;3.22;;;1.42;;
21848;SDS011;11089;49.852;19.700;2023-10-31T04:40:39;3.80;;;1.35;;
21848;SDS011;11089;49.852;19.700;2023-10-31T04:43:40;3.55;;;1.55;;
21848;SDS011;11089;49.852;19.700;2023-10-31T04:46:42;5.55;;;1.88;;
21848;SDS011;11089;49.852;19.700;2023-10-31T04:49:43;2.63;;;1.45;;
21848;SDS011;11089;49.852;19.700;2023-10-31T04:52:43;2.45;;;1.30;;
21848;SDS011;11089;49.852;19.700;2023-10-31T04:55:44;3.25;;;1.40;;
21848;SDS011;11089;49.852;19.700;2023-10-31T04:58:45;4.57;;;1.80;;
21848;SDS011;11089;49.852;19.700;2023-10-31T05:01:50;6.63;;;1.70;;
21848;SDS011;11089;49.852;19.700;2023-10-31T05:04:51;3.10;;;1.67;;
21848;SDS011;11089;49.852;19.700;2023-10-31T05:07:52;3.42;;;1.75;;
21848;SDS011;11089;49.852;19.700;2023-10-31T05:10:53;3.35;;;2.00;;
21848;SDS011;11089;49.852;19.700;2023-10-31T05:13:53;5.05;;;1.70;;
21848;SDS011;11089;49.852;19.700;2023-10-31T05:16:54;3.25;;;1.73;;
21848;SDS011;11089;49.852;19.700;2023-10-31T05:19:55;3.67;;;1.90;;
21848;SDS011;11089;49.852;19.700;2023-10-31T05:22:56;4.00;;;1.88;;
21848;SDS011;11089;49.852;19.700;2023-10-31T05:25:57;4.15;;;1.70;;
21848;SDS011;11089;49.852;19.700;2023-10-31T05:28:58;10.93;;;2.45;;
21848;SDS011;11089;49.852;19.700;2023-10-31T05:31:58;3.95;;;1.73;;
21848;SDS011;11089;49.852;19.700;2023-10-31T05:35:00;4.50;;;2.00;;
21848;SDS011;11089;49.852;19.700;2023-10-31T05:38:02;6.72;;;1.50;;
21848;SDS011;11089;49.852;19.700;2023-10-31T05:41:03;8.20;;;2.22;;
21848;SDS011;11089;49.852;19.700;2023-10-31T05:44:08;3.92;;;1.48;;
21848;SDS011;11089;49.852;19.700;2023-10-31T05:47:09;3.70;;;1.48;;
21848;SDS011;11089;49.852;19.700;2023-10-31T05:50:10;5.00;;;1.48;;
21848;SDS011;11089;49.852;19.700;2023-10-31T05:53:11;3.80;;;1.30;;
21848;SDS011;11089;49.852;19.700;2023-10-31T05:56:12;5.28;;;1.90;;
21848;SDS011;11089;49.852;19.700;2023-10-31T05:59:14;2.88;;;1.80;;
21848;SDS011;11089;49.852;19.700;2023-10-31T06:02:15;4.10;;;1.98;;
21848;SDS011;11089;49.852;19.700;2023-10-31T06:05:16;6.65;;;1.50;;
21848;SDS011;11089;49.852;19.700;2023-10-31T06:08:17;2.80;;;1.70;;
21848;SDS011;11089;49.852;19.700;2023-10-31T06:11:17;2.67;;;1.60;;
21848;SDS011;11089;49.852;19.700;2023-10-31T06:14:18;5.47;;;1.63;;
21848;SDS011;11089;49.852;19.700;2023-10-31T06:17:19;6.63;;;2.08;;
21848;SDS011;11089;49.852;19.700;2023-10-31T06:20:20;3.42;;;1.73;;
21848;SDS011;11089;49.852;19.700;2023-10-31T06:23:21;4.63;;;1.45;;
21848;SDS011;11089;49.852;19.700;2023-10-31T06:26:22;4.43;;;1.50;;
21848;SDS011;11089;49.852;19.700;2023-10-31T06:29:23;4.07;;;1.90;;
21848;SDS011;11089;49.852;19.700;2023-10-31T06:32:23;5.13;;;1.83;;
21848;SDS011;11089;49.852;19.700;2023-10-31T06:35:24;2.92;;;1.58;;
21848;SDS011;11089;49.852;19.700;2023-10-31T06:38:25;3.78;;;1.40;;
21848;SDS011;11089;49.852;19.700;2023-10-31T06:41:26;4.00;;;1.95;;
21848;SDS011;11089;49.852;19.700;2023-10-31T06:44:27;7.30;;;2.28;;
21848;SDS011;11089;49.852;19.700;2023-10-31T06:47:28;7.20;;;2.38;;
21848;SDS011;11089;49.852;19.700;2023-10-31T06:50:29;6.50;;;2.10;;
21848;SDS011;11089;49.852;19.700;2023-10-31T06:53:32;6.82;;;2.30;;
21848;SDS011;11089;49.852;19.700;2023-10-31T06:56:33;4.63;;;1.70;;
21848;SDS011;11089;49.852;19.700;2023-10-31T06:59:34;3.83;;;1.70;;
21848;SDS011;11089;49.852;19.700;2023-10-31T07:02:35;4.43;;;1.80;;
21848;SDS011;11089;49.852;19.700;2023-10-31T07:05:36;2.35;;;1.55;;
21848;SDS011;11089;49.852;19.700;2023-10-31T07:08:36;6.93;;;2.03;;
21848;SDS011;11089;49.852;19.700;2023-10-31T07:11:37;2.75;;;1.80;;
21848;SDS011;11089;49.852;19.700;2023-10-31T07:14:38;3.83;;;1.65;;
21848;SDS011;11089;49.852;19.700;2023-10-31T07:17:39;5.03;;;2.13;;
21848;SDS011;11089;49.852;19.700;2023-10-31T07:20:40;5.20;;;2.05;;
21848;SDS011;11089;49.852;19.700;2023-10-31T07:23:42;3.80;;;1.63;;
21848;SDS011;11089;49.852;19.700;2023-10-31T07:26:44;5.15;;;1.80;;
21848;SDS011;11089;49.852;19.700;2023-10-31T07:29:45;4.95;;;1.92;;
21848;SDS011;11089;49.852;19.700;2023-10-31T07:32:46;4.60;;;1.90;;
21848;SDS011;11089;49.852;19.700;2023-10-31T07:35:47;2.92;;;1.70;;
21848;SDS011;11089;49.852;19.700;2023-10-31T07:38:48;3.97;;;1.50;;
21848;SDS011;11089;49.852;19.700;2023-10-31T07:41:48;5.90;;;1.65;;
21848;SDS011;11089;49.852;19.700;2023-10-31T07:44:49;5.45;;;2.17;;
21848;SDS011;11089;49.852;19.700;2023-10-31T07:47:51;3.05;;;1.95;;
21848;SDS011;11089;49.852;19.700;2023-10-31T07:50:51;5.32;;;1.88;;
21848;SDS011;11089;49.852;19.700;2023-10-31T07:53:52;3.65;;;2.05;;
21848;SDS011;11089;49.852;19.700;2023-10-31T07:56:53;4.68;;;1.83;;
21848;SDS011;11089;49.852;19.700;2023-10-31T07:59:54;5.07;;;2.17;;
21848;SDS011;11089;49.852;19.700;2023-10-31T08:02:55;4.43;;;1.95;;
21848;SDS011;11089;49.852;19.700;2023-10-31T08:05:56;2.75;;;1.60;;
21848;SDS011;11089;49.852;19.700;2023-10-31T08:08:57;4.93;;;2.13;;
21848;SDS011;11089;49.852;19.700;2023-10-31T08:11:58;6.20;;;2.25;;
21848;SDS011;11089;49.852;19.700;2023-10-31T08:14:59;4.20;;;2.17;;
21848;SDS011;11089;49.852;19.700;2023-10-31T08:18:00;6.25;;;3.10;;
21848;SDS011;11089;49.852;19.700;2023-10-31T08:21:01;8.93;;;2.50;;
21848;SDS011;11089;49.852;19.700;2023-10-31T08:24:05;4.82;;;2.20;;
21848;SDS011;11089;49.852;19.700;2023-10-31T08:27:06;5.20;;;1.83;;
21848;SDS011;11089;49.852;19.700;2023-10-31T08:30:08;4.80;;;2.80;;
21848;SDS011;11089;49.852;19.700;2023-10-31T08:33:09;4.40;;;2.00;;
21848;SDS011;11089;49.852;19.700;2023-10-31T08:36:10;7.63;;;2.17;;
21848;SDS011;11089;49.852;19.700;2023-10-31T08:39:11;5.55;;;2.15;;
21848;SDS011;11089;49.852;19.700;2023-10-31T08:42:12;3.85;;;2.00;;
21848;SDS011;11089;49.852;19.700;2023-10-31T08:45:13;4.20;;;2.83;;
21848;SDS011;11089;49.852;19.700;2023-10-31T08:48:15;4.15;;;2.10;;
21848;SDS011;11089;49.852;19.700;2023-10-31T08:51:16;5.43;;;2.45;;
21848;SDS011;11089;49.852;19.700;2023-10-31T08:54:17;3.15;;;2.00;;
21848;SDS011;11089;49.852;19.700;2023-10-31T08:57:18;3.97;;;2.33;;
21848;SDS011;11089;49.852;19.700;2023-10-31T09:00:19;6.18;;;2.00;;
21848;SDS011;11089;49.852;19.700;2023-10-31T09:03:20;4.82;;;2.25;;
21848;SDS011;11089;49.852;19.700;2023-10-31T09:06:21;5.10;;;2.33;;
21848;SDS011;11089;49.852;19.700;2023-10-31T09:09:22;5.10;;;2.38;;
21848;SDS011;11089;49.852;19.700;2023-10-31T09:12:23;7.10;;;2.70;;
21848;SDS011;11089;49.852;19.700;2023-10-31T09:15:24;4.55;;;2.30;;
21848;SDS011;11089;49.852;19.700;2023-10-31T09:18:25;4.68;;;2.05;;
21848;SDS011;11089;49.852;19.700;2023-10-31T09:21:26;4.57;;;2.42;;
21848;SDS011;11089;49.852;19.700;2023-10-31T09:24:27;4.45;;;2.10;;
21848;SDS011;11089;49.852;19.700;2023-10-31T09:27:28;6.85;;;2.50;;
21848;SDS011;11089;49.852;19.700;2023-10-31T09:30:29;5.72;;;2.90;;
21848;SDS011;11089;49.852;19.700;2023-10-31T09:33:30;4.57;;;2.38;;
21848;SDS011;11089;49.852;19.700;2023-10-31T09:36:34;6.15;;;2.40;;
21848;SDS011;11089;49.852;19.700;2023-10-31T09:39:34;10.88;;;2.55;;
21848;SDS011;11089;49.852;19.700;2023-10-31T09:42:35;4.15;;;2.28;;
21848;SDS011;11089;49.852;19.700;2023-10-31T09:45:36;2.75;;;2.28;;
21848;SDS011;11089;49.852;19.700;2023-10-31T09:48:37;4.03;;;2.42;;
21848;SDS011;11089;49.852;19.700;2023-10-31T09:51:39;4.32;;;2.20;;
21848;SDS011;11089;49.852;19.700;2023-10-31T09:54:40;6.22;;;2.53;;
21848;SDS011;11089;49.852;19.700;2023-10-31T09:57:42;5.05;;;2.20;;
21848;SDS011;11089;49.852;19.700;2023-10-31T10:00:44;6.20;;;3.15;;
21848;SDS011;11089;49.852;19.700;2023-10-31T10:03:45;5.18;;;2.70;;
21848;SDS011;11089;49.852;19.700;2023-10-31T10:07:19;6.28;;;2.38;;
21848;SDS011;11089;49.852;19.700;2023-10-31T10:10:15;4.47;;;2.65;;
21848;SDS011;11089;49.852;19.700;2023-10-31T10:13:22;7.65;;;2.22;;
21848;SDS011;11089;49.852;19.700;2023-10-31T10:16:32;5.00;;;2.65;;
21848;SDS011;11089;49.852;19.700;2023-10-31T10:19:33;6.13;;;2.70;;
21848;SDS011;11089;49.852;19.700;2023-10-31T10:22:41;4.47;;;2.60;;
21848;SDS011;11089;49.852;19.700;2023-10-31T10:25:42;8.00;;;2.60;;
21848;SDS011;11089;49.852;19.700;2023-10-31T10:28:46;7.63;;;2.92;;
21848;SDS011;11089;49.852;19.700;2023-10-31T10:31:48;6.97;;;2.47;;
21848;SDS011;11089;49.852;19.700;2023-10-31T10:34:49;5.32;;;2.63;;
21848;SDS011;11089;49.852;19.700;2023-10-31T10:37:50;3.65;;;2.67;;
21848;SDS011;11089;49.852;19.700;2023-10-31T10:40:54;9.32;;;5.93;;
21848;SDS011;11089;49.852;19.700;2023-10-31T10:44:04;9.10;;;5.50;;
21848;SDS011;11089;49.852;19.700;2023-10-31T10:47:06;8.70;;;4.88;;
21848;SDS011;11089;49.852;19.700;2023-10-31T10:50:08;12.63;;;5.50;;
21848;SDS011;11089;49.852;19.700;2023-10-31T10:53:16;10.65;;;5.30;;
21848;SDS011;11089;49.852;19.700;2023-10-31T10:56:34;13.00;;;4.28;;
21848;SDS011;11089;49.852;19.700;2023-10-31T10:59:40;7.20;;;3.30;;
21848;SDS011;11089;49.852;19.700;2023-10-31T11:02:42;6.00;;;3.17;;
21848;SDS011;11089;49.852;19.700;2023-10-31T11:05:44;4.78;;;2.92;;
21848;SDS011;11089;49.852;19.700;2023-10-31T11:08:45;5.60;;;3.15;;
21848;SDS011;11089;49.852;19.700;2023-10-31T11:11:47;4.95;;;2.95;;
21848;SDS011;11089;49.852;19.700;2023-10-31T11:14:49;6.05;;;4.00;;
21848;SDS011;11089;49.852;19.700;2023-10-31T11:17:50;6.47;;;3.30;;
21848;SDS011;11089;49.852;19.700;2023-10-31T11:20:53;6.75;;;3.83;;
21848;SDS011;11089;49.852;19.700;2023-10-31T11:23:57;4.30;;;2.72;;
21848;SDS011;11089;49.852;19.700;2023-10-31T11:27:00;4.45;;;2.60;;
21848;SDS011;11089;49.852;19.700;2023-10-31T11:30:06;16.77;;;9.13;;
21848;SDS011;11089;49.852;19.700;2023-10-31T11:33:21;4.18;;;3.08;;
21848;SDS011;11089;49.852;19.700;2023-10-31T11:36:23;11.10;;;7.03;;
21848;SDS011;11089;49.852;19.700;2023-10-31T11:39:24;7.82;;;5.05;;
21848;SDS011;11089;49.852;19.700;2023-10-31T11:42:27;4.38;;;3.20;;
21848;SDS011;11089;49.852;19.700;2023-10-31T11:48:49;7.75;;;3.92;;
21848;SDS011;11089;49.852;19.700;2023-10-31T11:51:54;7.57;;;3.83;;
21848;SDS011;11089;49.852;19.700;2023-10-31T11:54:55;10.32;;;4.03;;
21848;SDS011;11089;49.852;19.700;2023-10-31T11:57:56;7.70;;;3.83;;
21848;SDS011;11089;49.852;19.700;2023-10-31T12:01:01;8.98;;;3.85;;
21848;SDS011;11089;49.852;19.700;2023-10-31T12:04:03;10.27;;;3.90;;
21848;SDS011;11089;49.852;19.700;2023-10-31T12:07:04;9.57;;;4.35;;
21848;SDS011;11089;49.852;19.700;2023-10-31T12:10:05;8.02;;;3.63;;
21848;SDS011;11089;49.852;19.700;2023-10-31T12:13:07;7.88;;;3.85;;
21848;SDS011;11089;49.852;19.700;2023-10-31T12:16:13;4.95;;;2.90;;
21848;SDS011;11089;49.852;19.700;2023-10-31T12:19:14;6.30;;;3.10;;
21848;SDS011;11089;49.852;19.700;2023-10-31T12:22:15;6.97;;;3.60;;
21848;SDS011;11089;49.852;19.700;2023-10-31T12:25:16;4.78;;;2.97;;
21848;SDS011;11089;49.852;19.700;2023-10-31T12:28:18;6.25;;;3.45;;
21848;SDS011;11089;49.852;19.700;2023-10-31T12:31:19;5.55;;;3.25;;
21848;SDS011;11089;49.852;19.700;2023-10-31T12:34:24;4.10;;;2.80;;
21848;SDS011;11089;49.852;19.700;2023-10-31T12:37:25;5.00;;;3.45;;
21848;SDS011;11089;49.852;19.700;2023-10-31T12:40:26;6.85;;;3.45;;
21848;SDS011;11089;49.852;19.700;2023-10-31T12:43:27;4.25;;;2.78;;
21848;SDS011;11089;49.852;19.700;2023-10-31T12:46:29;6.93;;;3.25;;
21848;SDS011;11089;49.852;19.700;2023-10-31T12:49:31;4.47;;;3.30;;
21848;SDS011;11089;49.852;19.700;2023-10-31T12:55:51;7.40;;;4.25;;
21848;SDS011;11089;49.852;19.700;2023-10-31T12:58:58;5.57;;;3.63;;
21848;SDS011;11089;49.852;19.700;2023-10-31T13:01:59;7.78;;;3.65;;
21848;SDS011;11089;49.852;19.700;2023-10-31T13:05:10;8.48;;;3.60;;
21848;SDS011;11089;49.852;19.700;2023-10-31T13:08:17;6.53;;;3.38;;
21848;SDS011;11089;49.852;19.700;2023-10-31T13:11:18;8.30;;;3.35;;
21848;SDS011;11089;49.852;19.700;2023-10-31T13:14:25;7.90;;;3.70;;
21848;SDS011;11089;49.852;19.700;2023-10-31T13:17:26;5.80;;;3.90;;
21848;SDS011;11089;49.852;19.700;2023-10-31T13:20:28;9.07;;;4.60;;
21848;SDS011;11089;49.852;19.700;2023-10-31T13:23:29;8.02;;;4.50;;
21848;SDS011;11089;49.852;19.700;2023-10-31T13:26:30;13.60;;;4.82;;
21848;SDS011;11089;49.852;19.700;2023-10-31T13:29:31;8.00;;;4.75;;
21848;SDS011;11089;49.852;19.700;2023-10-31T13:32:33;8.65;;;4.50;;
21848;SDS011;11089;49.852;19.700;2023-10-31T13:35:35;9.20;;;4.30;;
21848;SDS011;11089;49.852;19.700;2023-10-31T13:38:36;7.60;;;4.20;;
21848;SDS011;11089;49.852;19.700;2023-10-31T13:41:38;6.75;;;3.47;;
21848;SDS011;11089;49.852;19.700;2023-10-31T13:44:39;9.15;;;4.18;;
21848;SDS011;11089;49.852;19.700;2023-10-31T13:47:43;6.15;;;3.53;;
21848;SDS011;11089;49.852;19.700;2023-10-31T13:50:44;4.65;;;3.30;;
21848;SDS011;11089;49.852;19.700;2023-10-31T13:53:46;7.60;;;4.13;;
21848;SDS011;11089;49.852;19.700;2023-10-31T13:56:47;6.53;;;3.75;;
21848;SDS011;11089;49.852;19.700;2023-10-31T13:59:49;6.05;;;4.03;;
21848;SDS011;11089;49.852;19.700;2023-10-31T14:02:51;6.47;;;3.58;;
21848;SDS011;11089;49.852;19.700;2023-10-31T14:05:51;6.80;;;3.65;;
21848;SDS011;11089;49.852;19.700;2023-10-31T14:08:53;6.57;;;3.85;;
21848;SDS011;11089;49.852;19.700;2023-10-31T14:11:53;6.50;;;4.10;;
21848;SDS011;11089;49.852;19.700;2023-10-31T14:14:54;5.25;;;3.72;;
21848;SDS011;11089;49.852;19.700;2023-10-31T14:17:55;6.90;;;3.90;;
21848;SDS011;11089;49.852;19.700;2023-10-31T14:20:57;6.47;;;3.60;;
21848;SDS011;11089;49.852;19.700;2023-10-31T14:23:57;5.65;;;3.50;;
21848;SDS011;11089;49.852;19.700;2023-10-31T14:26:58;6.82;;;3.85;;
21848;SDS011;11089;49.852;19.700;2023-10-31T14:30:00;4.90;;;3.85;;
21848;SDS011;11089;49.852;19.700;2023-10-31T14:33:01;7.35;;;4.00;;
21848;SDS011;11089;49.852;19.700;2023-10-31T14:36:02;7.13;;;3.50;;
21848;SDS011;11089;49.852;19.700;2023-10-31T14:39:03;10.40;;;5.10;;
21848;SDS011;11089;49.852;19.700;2023-10-31T14:42:05;8.15;;;5.45;;
21848;SDS011;11089;49.852;19.700;2023-10-31T14:45:06;9.65;;;5.43;;
21848;SDS011;11089;49.852;19.700;2023-10-31T14:48:07;8.57;;;5.75;;
21848;SDS011;11089;49.852;19.700;2023-10-31T14:51:08;8.32;;;5.55;;
21848;SDS011;11089;49.852;19.700;2023-10-31T14:54:09;11.48;;;5.50;;
21848;SDS011;11089;49.852;19.700;2023-10-31T14:57:10;8.90;;;5.10;;
21848;SDS011;11089;49.852;19.700;2023-10-31T15:00:10;7.65;;;5.53;;
21848;SDS011;11089;49.852;19.700;2023-10-31T15:03:12;9.68;;;5.20;;
21848;SDS011;11089;49.852;19.700;2023-10-31T15:06:13;10.15;;;5.35;;
21848;SDS011;11089;49.852;19.700;2023-10-31T15:09:15;12.07;;;6.25;;
21848;SDS011;11089;49.852;19.700;2023-10-31T15:12:18;9.48;;;6.18;;
21848;SDS011;11089;49.852;19.700;2023-10-31T15:15:21;17.08;;;7.55;;
21848;SDS011;11089;49.852;19.700;2023-10-31T15:18:22;10.02;;;6.53;;
21848;SDS011;11089;49.852;19.700;2023-10-31T15:21:23;9.73;;;6.78;;
21848;SDS011;11089;49.852;19.700;2023-10-31T15:24:27;11.88;;;8.32;;
21848;SDS011;11089;49.852;19.700;2023-10-31T15:27:30;12.52;;;8.60;;
21848;SDS011;11089;49.852;19.700;2023-10-31T15:30:31;23.83;;;13.55;;
21848;SDS011;11089;49.852;19.700;2023-10-31T15:33:32;15.80;;;9.90;;
21848;SDS011;11089;49.852;19.700;2023-10-31T15:36:33;11.73;;;8.15;;
21848;SDS011;11089;49.852;19.700;2023-10-31T15:39:34;14.75;;;9.02;;
21848;SDS011;11089;49.852;19.700;2023-10-31T15:42:35;19.95;;;10.73;;
21848;SDS011;11089;49.852;19.700;2023-10-31T15:45:35;21.50;;;12.90;;
21848;SDS011;11089;49.852;19.700;2023-10-31T15:48:40;16.63;;;10.80;;
21848;SDS011;11089;49.852;19.700;2023-10-31T15:51:42;16.73;;;10.23;;
21848;SDS011;11089;49.852;19.700;2023-10-31T15:54:43;19.35;;;12.10;;
21848;SDS011;11089;49.852;19.700;2023-10-31T15:57:44;24.30;;;12.45;;
21848;SDS011;11089;49.852;19.700;2023-10-31T16:00:45;14.05;;;8.30;;
21848;SDS011;11089;49.852;19.700;2023-10-31T16:03:46;15.10;;;9.98;;
21848;SDS011;11089;49.852;19.700;2023-10-31T16:06:47;15.50;;;9.95;;
21848;SDS011;11089;49.852;19.700;2023-10-31T16:09:48;20.08;;;9.38;;
21848;SDS011;11089;49.852;19.700;2023-10-31T16:12:49;16.02;;;10.15;;
21848;SDS011;11089;49.852;19.700;2023-10-31T16:15:50;13.85;;;10.13;;
21848;SDS011;11089;49.852;19.700;2023-10-31T16:18:51;14.10;;;9.52;;
21848;SDS011;11089;49.852;19.700;2023-10-31T16:21:53;14.65;;;8.40;;
21848;SDS011;11089;49.852;19.700;2023-10-31T16:24:54;13.77;;;8.88;;
21848;SDS011;11089;49.852;19.700;2023-10-31T16:27:55;14.73;;;10.05;;
21848;SDS011;11089;49.852;19.700;2023-10-31T16:30:56;13.32;;;9.98;;
21848;SDS011;11089;49.852;19.700;2023-10-31T16:33:57;19.63;;;11.25;;
21848;SDS011;11089;49.852;19.700;2023-10-31T16:36:58;15.73;;;9.60;;
21848;SDS011;11089;49.852;19.700;2023-10-31T16:39:59;13.60;;;8.63;;
21848;SDS011;11089;49.852;19.700;2023-10-31T16:43:00;12.55;;;8.30;;
21848;SDS011;11089;49.852;19.700;2023-10-31T16:46:01;12.32;;;7.85;;
21848;SDS011;11089;49.852;19.700;2023-10-31T16:49:02;13.63;;;9.38;;
21848;SDS011;11089;49.852;19.700;2023-10-31T16:52:03;21.67;;;10.15;;
21848;SDS011;11089;49.852;19.700;2023-10-31T16:55:05;17.02;;;9.82;;
21848;SDS011;11089;49.852;19.700;2023-10-31T16:58:06;17.23;;;9.82;;
21848;SDS011;11089;49.852;19.700;2023-10-31T17:01:10;13.77;;;9.20;;
21848;SDS011;11089;49.852;19.700;2023-10-31T17:04:11;15.82;;;9.23;;
21848;SDS011;11089;49.852;19.700;2023-10-31T17:07:12;17.15;;;10.93;;
21848;SDS011;11089;49.852;19.700;2023-10-31T17:10:13;16.83;;;11.20;;
21848;SDS011;11089;49.852;19.700;2023-10-31T17:13:14;15.00;;;9.77;;
21848;SDS011;11089;49.852;19.700;2023-10-31T17:16:15;15.82;;;11.15;;
21848;SDS011;11089;49.852;19.700;2023-10-31T17:19:16;14.25;;;8.77;;
21848;SDS011;11089;49.852;19.700;2023-10-31T17:22:17;11.55;;;8.45;;
21848;SDS011;11089;49.852;19.700;2023-10-31T17:25:18;15.82;;;9.75;;
21848;SDS011;11089;49.852;19.700;2023-10-31T17:28:19;13.93;;;8.15;;
21848;SDS011;11089;49.852;19.700;2023-10-31T17:31:20;15.30;;;9.30;;
21848;SDS011;11089;49.852;19.700;2023-10-31T17:34:21;9.88;;;7.10;;
21848;SDS011;11089;49.852;19.700;2023-10-31T17:37:22;8.52;;;5.20;;
21848;SDS011;11089;49.852;19.700;2023-10-31T17:40:24;6.60;;;4.20;;
21848;SDS011;11089;49.852;19.700;2023-10-31T17:43:25;7.47;;;3.65;;
21848;SDS011;11089;49.852;19.700;2023-10-31T17:46:26;4.63;;;2.83;;
21848;SDS011;11089;49.852;19.700;2023-10-31T17:49:27;3.60;;;2.58;;
21848;SDS011;11089;49.852;19.700;2023-10-31T17:52:28;6.85;;;3.55;;
21848;SDS011;11089;49.852;19.700;2023-10-31T17:55:29;5.88;;;2.70;;
21848;SDS011;11089;49.852;19.700;2023-10-31T17:58:30;4.78;;;1.95;;
21848;SDS011;11089;49.852;19.700;2023-10-31T18:01:31;4.88;;;2.33;;